createdAt,value
2016-06-14T00:00:21.912Z,0
2016-06-14T00:01:22.448Z,0
2016-06-14T00:02:21.935Z,0
2016-06-14T00:03:21.906Z,0
2016-06-14T00:04:21.910Z,0
2016-06-14T00:05:21.927Z,0
2016-06-14T00:06:21.947Z,0
2016-06-14T00:07:21.950Z,0
2016-06-14T00:08:22.562Z,0
2016-06-14T00:09:21.956Z,0
2016-06-14T00:10:21.959Z,0
2016-06-14T00:11:21.978Z,0
2016-06-14T00:12:21.997Z,0
2016-06-14T00:13:21.984Z,0
2016-06-14T00:14:21.924Z,0
2016-06-14T00:15:22.006Z,0
2016-06-14T00:16:22.008Z,0
2016-06-14T00:17:22.012Z,0
2016-06-14T00:18:22.015Z,0
2016-06-14T00:19:22.049Z,0
2016-06-14T00:20:22.037Z,0
2016-06-14T00:21:22.040Z,0
2016-06-14T00:22:22.043Z,0
2016-06-14T00:23:22.046Z,0
2016-06-14T00:24:22.064Z,0
2016-06-14T00:25:22.067Z,0
2016-06-14T00:26:22.086Z,0
2016-06-14T00:27:22.073Z,0
2016-06-14T00:28:22.076Z,0
2016-06-14T00:29:22.409Z,0
2016-06-14T00:30:22.129Z,0
2016-06-14T00:31:22.117Z,0
2016-06-14T00:32:22.121Z,0
2016-06-14T00:33:22.124Z,0
2016-06-14T00:34:22.126Z,0
2016-06-14T00:35:22.145Z,0
2016-06-14T00:36:22.148Z,0
2016-06-14T00:37:22.151Z,0
2016-06-14T00:38:22.014Z,0
2016-06-14T00:39:22.173Z,0
2016-06-14T00:40:22.177Z,0
2016-06-14T00:41:22.179Z,0
2016-06-14T00:42:22.182Z,0
2016-06-14T00:43:22.186Z,0
2016-06-14T00:44:22.501Z,0
2016-06-14T00:45:22.113Z,0
2016-06-14T00:46:22.211Z,0
2016-06-14T00:47:22.228Z,0
2016-06-14T00:48:22.232Z,0
2016-06-14T00:49:22.235Z,0
2016-06-14T00:50:22.254Z,0
2016-06-14T00:51:22.101Z,0
2016-06-14T00:52:22.260Z,0
2016-06-14T00:53:22.263Z,0
2016-06-14T00:54:22.282Z,0
2016-06-14T00:55:22.331Z,0
2016-06-14T00:56:22.304Z,0
2016-06-14T00:57:22.291Z,0
2016-06-14T00:58:22.309Z,0
2016-06-14T00:59:22.829Z,0
2016-06-14T01:00:22.347Z,0
2016-06-14T01:01:22.319Z,0
2016-06-14T01:02:22.181Z,0
2016-06-14T01:03:22.341Z,0
2016-06-14T01:04:22.344Z,0
2016-06-14T01:05:22.348Z,0
2016-06-14T01:06:22.365Z,0
2016-06-14T01:07:22.369Z,0
2016-06-14T01:08:22.387Z,0
2016-06-14T01:09:22.374Z,0
2016-06-14T01:10:22.378Z,0
2016-06-14T01:11:22.413Z,0
2016-06-14T01:12:22.399Z,0
2016-06-14T01:13:22.403Z,0
2016-06-14T01:14:22.828Z,0
2016-06-14T01:15:22.440Z,0
2016-06-14T01:16:22.427Z,0
2016-06-14T01:17:22.431Z,0
2016-06-14T01:18:22.466Z,0
2016-06-14T01:19:22.452Z,0
2016-06-14T01:20:22.455Z,0
2016-06-14T01:21:22.302Z,0
2016-06-14T01:22:22.462Z,0
2016-06-14T01:23:22.480Z,0
2016-06-14T01:24:22.483Z,0
2016-06-14T01:25:22.502Z,0
2016-06-14T01:26:22.349Z,0
2016-06-14T01:27:22.508Z,0
2016-06-14T01:28:22.511Z,0
2016-06-14T01:29:23.311Z,0
2016-06-14T01:30:23.674Z,0
2016-06-14T01:31:22.536Z,0
2016-06-14T01:32:22.539Z,0
2016-06-14T01:33:22.542Z,0
2016-06-14T01:34:22.561Z,0
2016-06-14T01:35:22.564Z,0
2016-06-14T01:36:22.583Z,0
2016-06-14T01:37:22.570Z,0
2016-06-14T01:38:22.432Z,0
2016-06-14T01:39:22.608Z,0
2016-06-14T01:40:22.595Z,0
2016-06-14T01:41:22.441Z,0
2016-06-14T01:42:22.601Z,0
2016-06-14T01:43:22.620Z,0
2016-06-14T01:44:22.639Z,0
2016-06-14T01:45:23.313Z,0
2016-06-14T01:46:22.645Z,0
2016-06-14T01:47:22.649Z,0
2016-06-14T01:48:22.666Z,0
2016-06-14T01:49:22.654Z,0
2016-06-14T01:50:22.672Z,0
2016-06-14T01:51:22.676Z,0
2016-06-14T01:52:22.694Z,0
2016-06-14T01:53:22.698Z,0
2016-06-14T01:54:22.715Z,0
2016-06-14T01:55:22.751Z,0
2016-06-14T01:56:22.707Z,0
2016-06-14T01:57:22.725Z,0
2016-06-14T01:58:22.728Z,0
2016-06-14T01:59:23.185Z,0
2016-06-14T02:00:22.891Z,0
2016-06-14T02:01:22.753Z,0
2016-06-14T02:02:22.756Z,0
2016-06-14T02:03:22.775Z,0
2016-06-14T02:04:22.794Z,0
2016-06-14T02:05:22.765Z,0
2016-06-14T02:06:22.785Z,0
2016-06-14T02:07:22.647Z,0
2016-06-14T02:08:22.791Z,0
2016-06-14T02:09:22.809Z,0
2016-06-14T02:10:22.812Z,0
2016-06-14T02:11:22.815Z,0
2016-06-14T02:12:22.818Z,0
2016-06-14T02:13:22.821Z,0
2016-06-14T02:14:22.841Z,0
2016-06-14T02:15:23.124Z,0
2016-06-14T02:16:22.846Z,0
2016-06-14T02:17:22.865Z,0
2016-06-14T02:18:22.884Z,0
2016-06-14T02:19:22.871Z,0
2016-06-14T02:20:22.874Z,0
2016-06-14T02:21:22.893Z,0
2016-06-14T02:22:22.911Z,0
2016-06-14T02:23:22.899Z,0
2016-06-14T02:24:22.902Z,0
2016-06-14T02:25:22.921Z,0
2016-06-14T02:26:22.924Z,0
2016-06-14T02:27:22.927Z,0
2016-06-14T02:28:22.945Z,0
2016-06-14T02:29:22.808Z,0
2016-06-14T02:30:22.811Z,0
2016-06-14T02:31:22.970Z,0
2016-06-14T02:32:22.973Z,0
2016-06-14T02:33:22.992Z,0
2016-06-14T02:34:22.980Z,0
2016-06-14T02:35:22.999Z,0
2016-06-14T02:36:22.985Z,0
2016-06-14T02:37:23.005Z,0
2016-06-14T02:38:23.008Z,0
2016-06-14T02:39:23.011Z,0
2016-06-14T02:40:23.045Z,0
2016-06-14T02:41:23.032Z,0
2016-06-14T02:42:23.021Z,0
2016-06-14T02:43:23.054Z,0
2016-06-14T02:44:23.042Z,0
2016-06-14T02:45:22.905Z,0
2016-06-14T02:46:23.079Z,0
2016-06-14T02:47:23.083Z,0
2016-06-14T02:48:23.086Z,4
2016-06-14T02:49:23.089Z,4
2016-06-14T02:50:22.935Z,4
2016-06-14T02:51:23.126Z,4
2016-06-14T02:52:23.113Z,4
2016-06-14T02:53:23.210Z,4
2016-06-14T02:54:22.807Z,0
2016-06-14T02:55:23.294Z,0
2016-06-14T02:56:23.142Z,0
2016-06-14T02:57:23.066Z,4
2016-06-14T02:58:23.147Z,4
2016-06-14T02:59:23.073Z,4
2016-06-14T03:00:23.747Z,4
2016-06-14T03:01:23.079Z,4
2016-06-14T03:02:23.175Z,4
2016-06-14T03:03:23.272Z,4
2016-06-14T03:04:23.275Z,4
2016-06-14T03:05:23.122Z,4
2016-06-14T03:06:23.203Z,4
2016-06-14T03:07:23.207Z,4
2016-06-14T03:08:23.225Z,4
2016-06-14T03:09:23.228Z,4
2016-06-14T03:10:23.074Z,4
2016-06-14T03:11:23.249Z,4
2016-06-14T03:12:23.253Z,8
2016-06-14T03:13:23.256Z,8
2016-06-14T03:14:23.274Z,4
2016-06-14T03:15:23.371Z,4
2016-06-14T03:16:23.265Z,4
2016-06-14T03:17:23.128Z,8
2016-06-14T03:18:23.131Z,8
2016-06-14T03:19:23.306Z,8
2016-06-14T03:20:23.309Z,8
2016-06-14T03:21:23.312Z,4
2016-06-14T03:22:23.315Z,8
2016-06-14T03:23:23.318Z,8
2016-06-14T03:24:23.181Z,8
2016-06-14T03:25:23.339Z,8
2016-06-14T03:26:23.373Z,8
2016-06-14T03:27:23.362Z,8
2016-06-14T03:28:23.365Z,8
2016-06-14T03:29:23.211Z,8
2016-06-14T03:30:23.730Z,8
2016-06-14T03:31:23.404Z,12
2016-06-14T03:32:23.392Z,8
2016-06-14T03:33:23.395Z,8
2016-06-14T03:34:23.398Z,12
2016-06-14T03:35:23.433Z,12
2016-06-14T03:36:23.420Z,16
2016-06-14T03:37:23.423Z,16
2016-06-14T03:38:23.271Z,16
2016-06-14T03:39:23.430Z,16
2016-06-14T03:40:23.292Z,12
2016-06-14T03:41:23.451Z,16
2016-06-14T03:42:23.454Z,12
2016-06-14T03:43:23.473Z,16
2016-06-14T03:44:23.476Z,16
2016-06-14T03:45:23.182Z,16
2016-06-14T03:46:23.498Z,16
2016-06-14T03:47:23.501Z,16
2016-06-14T03:48:23.488Z,16
2016-06-14T03:49:23.554Z,16
2016-06-14T03:50:23.526Z,16
2016-06-14T03:51:23.513Z,12
2016-06-14T03:52:23.532Z,16
2016-06-14T03:53:23.535Z,16
2016-06-14T03:54:23.539Z,16
2016-06-14T03:55:23.604Z,20
2016-06-14T03:56:23.559Z,20
2016-06-14T03:57:23.579Z,20
2016-06-14T03:58:23.566Z,20
2016-06-14T03:59:23.569Z,24
2016-06-14T04:00:23.322Z,24
2016-06-14T04:01:23.591Z,24
2016-06-14T04:02:23.594Z,24
2016-06-14T04:03:23.612Z,24
2016-06-14T04:04:23.632Z,24
2016-06-14T04:05:23.618Z,24
2016-06-14T04:06:23.621Z,24
2016-06-14T04:07:23.624Z,24
2016-06-14T04:08:23.644Z,28
2016-06-14T04:09:23.647Z,28
2016-06-14T04:10:23.680Z,32
2016-06-14T04:11:23.184Z,32
2016-06-14T04:12:23.672Z,36
2016-06-14T04:13:23.675Z,36
2016-06-14T04:14:23.693Z,36
2016-06-14T04:15:23.931Z,36
2016-06-14T04:16:23.746Z,40
2016-06-14T04:17:23.702Z,40
2016-06-14T04:18:23.721Z,40
2016-06-14T04:19:23.725Z,40
2016-06-14T04:20:23.728Z,44
2016-06-14T04:21:23.730Z,44
2016-06-14T04:22:23.734Z,44
2016-06-14T04:23:23.752Z,44
2016-06-14T04:24:23.756Z,44
2016-06-14T04:25:23.759Z,44
2016-06-14T04:26:23.762Z,44
2016-06-14T04:27:23.780Z,44
2016-06-14T04:28:23.784Z,44
2016-06-14T04:29:23.802Z,44
2016-06-14T04:30:24.164Z,44
2016-06-14T04:31:23.793Z,44
2016-06-14T04:32:23.812Z,44
2016-06-14T04:33:23.814Z,44
2016-06-14T04:34:23.833Z,44
2016-06-14T04:35:23.821Z,48
2016-06-14T04:36:23.838Z,44
2016-06-14T04:37:23.857Z,48
2016-06-14T04:38:23.845Z,52
2016-06-14T04:39:23.848Z,48
2016-06-14T04:40:23.867Z,52
2016-06-14T04:41:23.870Z,52
2016-06-14T04:42:23.873Z,52
2016-06-14T04:43:23.892Z,52
2016-06-14T04:44:23.895Z,56
2016-06-14T04:45:24.085Z,60
2016-06-14T04:46:23.901Z,60
2016-06-14T04:47:23.905Z,64
2016-06-14T04:48:23.923Z,68
2016-06-14T04:49:23.941Z,76
2016-06-14T04:50:23.945Z,76
2016-06-14T04:51:23.932Z,80
2016-06-14T04:52:23.810Z,88
2016-06-14T04:53:23.970Z,96
2016-06-14T04:54:23.973Z,100
2016-06-14T04:55:23.976Z,100
2016-06-14T04:56:23.979Z,104
2016-06-14T04:57:23.983Z,112
2016-06-14T04:58:23.985Z,132
2016-06-14T04:59:24.019Z,144
2016-06-14T05:00:23.944Z,172
2016-06-14T05:01:24.010Z,200
2016-06-14T05:02:24.029Z,200
2016-06-14T05:03:24.016Z,200
2016-06-14T05:04:24.050Z,188
2016-06-14T05:05:24.069Z,196
2016-06-14T05:06:24.056Z,208
2016-06-14T05:07:24.059Z,220
2016-06-14T05:08:24.094Z,224
2016-06-14T05:09:24.097Z,220
2016-06-14T05:10:24.084Z,224
2016-06-14T05:11:24.088Z,232
2016-06-14T05:12:24.091Z,244
2016-06-14T05:13:24.094Z,256
2016-06-14T05:14:24.113Z,272
2016-06-14T05:15:24.038Z,296
2016-06-14T05:16:24.150Z,328
2016-06-14T05:17:24.122Z,320
2016-06-14T05:18:24.156Z,300
2016-06-14T05:19:24.253Z,288
2016-06-14T05:20:24.146Z,272
2016-06-14T05:21:24.165Z,268
2016-06-14T05:22:24.168Z,268
2016-06-14T05:23:24.171Z,284
2016-06-14T05:24:24.175Z,304
2016-06-14T05:25:24.194Z,324
2016-06-14T05:26:24.900Z,320
2016-06-14T05:27:24.199Z,316
2016-06-14T05:28:24.718Z,328
2016-06-14T05:29:24.221Z,344
2016-06-14T05:30:24.849Z,360
2016-06-14T05:31:24.226Z,376
2016-06-14T05:32:24.230Z,376
2016-06-14T05:33:24.249Z,392
2016-06-14T05:34:24.236Z,424
2016-06-14T05:35:24.349Z,468
2016-06-14T05:36:24.431Z,504
2016-06-14T05:37:24.730Z,536
2016-06-14T05:38:24.671Z,628
2016-06-14T05:39:24.407Z,620
2016-06-14T05:40:24.301Z,608
2016-06-14T05:41:24.305Z,596
2016-06-14T05:42:24.308Z,620
2016-06-14T05:43:24.311Z,576
2016-06-14T05:44:24.908Z,532
2016-06-14T05:45:25.505Z,576
2016-06-14T05:46:25.586Z,680
2016-06-14T05:47:24.823Z,632
2016-06-14T05:48:24.764Z,684
2016-06-14T05:49:24.877Z,816
2016-06-14T05:50:24.348Z,872
2016-06-14T05:51:25.102Z,904
2016-06-14T05:52:25.058Z,852
2016-06-14T05:53:25.045Z,844
2016-06-14T05:54:24.844Z,828
2016-06-14T05:55:25.161Z,844
2016-06-14T05:56:24.414Z,768
2016-06-14T05:57:24.401Z,732
2016-06-14T05:58:24.420Z,800
2016-06-14T05:59:24.423Z,804
2016-06-14T06:00:26.894Z,776
2016-06-14T06:01:25.335Z,744
2016-06-14T06:02:24.572Z,700
2016-06-14T06:03:24.717Z,668
2016-06-14T06:04:24.485Z,620
2016-06-14T06:05:24.456Z,612
2016-06-14T06:06:24.491Z,576
2016-06-14T06:07:24.479Z,576
2016-06-14T06:08:24.497Z,580
2016-06-14T06:09:24.500Z,540
2016-06-14T06:10:24.503Z,504
2016-06-14T06:11:24.522Z,452
2016-06-14T06:12:24.525Z,424
2016-06-14T06:13:24.575Z,460
2016-06-14T06:14:24.547Z,452
2016-06-14T06:15:26.425Z,476
2016-06-14T06:16:25.429Z,540
2016-06-14T06:17:29.274Z,564
2016-06-14T06:18:25.638Z,548
2016-06-14T06:19:26.812Z,544
2016-06-14T06:20:25.518Z,536
2016-06-14T06:21:26.491Z,568
2016-06-14T06:22:26.337Z,564
2016-06-14T06:23:25.715Z,628
2016-06-14T06:24:25.250Z,672
2016-06-14T06:25:25.268Z,684
2016-06-14T06:26:25.302Z,728
2016-06-14T06:27:27.571Z,732
2016-06-14T06:28:25.591Z,732
2016-06-14T06:29:25.624Z,724
2016-06-14T06:30:24.972Z,704
2016-06-14T06:31:26.350Z,624
2016-06-14T06:32:25.415Z,572
2016-06-14T06:33:25.278Z,524
2016-06-14T06:34:24.702Z,528
2016-06-14T06:35:24.643Z,468
2016-06-14T06:36:26.646Z,408
2016-06-14T06:37:25.211Z,376
2016-06-14T06:38:24.746Z,356
2016-06-14T06:39:25.124Z,340
2016-06-14T06:40:25.236Z,328
2016-06-14T06:41:25.380Z,332
2016-06-14T06:42:25.587Z,336
2016-06-14T06:43:25.261Z,348
2016-06-14T06:44:26.232Z,356
2016-06-14T06:45:25.793Z,368
2016-06-14T06:46:25.633Z,372
2016-06-14T06:47:25.253Z,384
2016-06-14T06:48:26.404Z,380
2016-06-14T06:49:26.838Z,384
2016-06-14T06:50:26.551Z,388
2016-06-14T06:51:26.208Z,384
2016-06-14T06:52:25.710Z,368
2016-06-14T06:53:26.024Z,344
2016-06-14T06:54:25.947Z,320
2016-06-14T06:55:25.897Z,300
2016-06-14T06:56:26.233Z,272
2016-06-14T06:57:27.224Z,252
2016-06-14T06:58:26.390Z,236
2016-06-14T06:59:26.523Z,220
2016-06-14T07:00:26.435Z,208
2016-06-14T07:01:26.877Z,200
2016-06-14T07:02:28.648Z,196
2016-06-14T07:03:26.964Z,192
2016-06-14T07:04:26.424Z,184
2016-06-14T07:05:27.520Z,180
2016-06-14T07:06:26.181Z,176
2016-06-14T07:07:26.278Z,168
2016-06-14T07:08:25.939Z,156
2016-06-14T07:09:28.581Z,148
2016-06-14T07:10:29.335Z,140
2016-06-14T07:12:09.777Z,136
2016-06-14T07:12:25.264Z,136
2016-06-14T07:13:27.892Z,136
2016-06-14T07:14:28.709Z,128
2016-06-14T07:15:27.305Z,132
2016-06-14T07:16:29.824Z,132
2016-06-14T07:17:28.608Z,136
2016-06-14T07:18:27.892Z,140
2016-06-14T07:19:29.443Z,144
2016-06-14T07:20:28.195Z,144
2016-06-14T07:21:27.324Z,152
2016-06-14T07:22:27.796Z,156
2016-06-14T07:23:29.862Z,160
2016-06-14T07:24:29.833Z,168
2016-06-14T07:25:28.836Z,172
2016-06-14T07:27:34.295Z,180
2016-06-14T07:27:48.702Z,180
2016-06-14T07:28:50.533Z,188
2016-06-14T07:29:51.067Z,192
2016-06-14T07:31:22.651Z,192
2016-06-14T07:31:51.839Z,188
2016-06-14T07:33:18.718Z,180
2016-06-14T07:33:51.158Z,180
2016-06-14T07:34:54.082Z,172
2016-06-14T07:35:47.477Z,168
2016-06-14T07:36:47.245Z,156
2016-06-14T07:37:47.263Z,148
2016-06-14T07:38:47.282Z,144
2016-06-14T07:39:47.270Z,144
2016-06-14T07:40:47.585Z,140
2016-06-14T07:41:47.307Z,144
2016-06-14T07:42:46.998Z,148
2016-06-14T07:43:47.298Z,156
2016-06-14T07:44:47.316Z,160
2016-06-14T07:45:47.320Z,168
2016-06-14T07:46:48.057Z,176
2016-06-14T07:47:47.341Z,176
2016-06-14T07:48:47.345Z,180
2016-06-14T07:49:47.348Z,188
2016-06-14T07:50:47.490Z,196
2016-06-14T07:51:47.369Z,200
2016-06-14T07:52:47.372Z,212
2016-06-14T07:53:47.672Z,220
2016-06-14T07:54:47.378Z,236
2016-06-14T07:55:47.397Z,252
2016-06-14T07:56:47.806Z,296
2016-06-14T07:57:47.404Z,348
2016-06-14T07:58:47.453Z,608
2016-06-14T07:59:47.409Z,1040
2016-06-14T08:00:47.429Z,876
2016-06-14T08:01:47.431Z,1200
2016-06-14T08:02:51.763Z,768
2016-06-14T08:03:47.453Z,740
2016-06-14T08:04:48.331Z,1140
2016-06-14T08:05:48.975Z,1084
2016-06-14T08:06:48.118Z,660
2016-06-14T08:07:49.778Z,820
2016-06-14T08:08:49.171Z,796
2016-06-14T08:09:50.409Z,1052
2016-06-14T08:10:48.912Z,724
2016-06-14T08:11:52.463Z,1076
2016-06-14T08:12:49.777Z,716
2016-06-14T08:13:49.280Z,804
2016-06-14T08:14:51.346Z,1008
2016-06-14T08:15:49.365Z,924
2016-06-14T08:16:50.867Z,612
2016-06-14T08:17:49.136Z,648
2016-06-14T08:18:49.749Z,644
2016-06-14T08:19:49.768Z,776
2016-06-14T08:20:48.099Z,896
2016-06-14T08:21:49.274Z,1024
2016-06-14T08:22:53.136Z,520
2016-06-14T08:23:48.921Z,948
2016-06-14T08:24:49.253Z,1028
2016-06-14T08:25:49.020Z,1072
2016-06-14T08:26:50.008Z,1200
2016-06-14T08:27:48.495Z,636
2016-06-14T08:28:48.124Z,664
2016-06-14T08:29:48.690Z,712
2016-06-14T08:30:49.067Z,776
2016-06-14T08:31:48.555Z,592
2016-06-14T08:32:49.589Z,664
2016-06-14T08:33:49.388Z,476
2016-06-14T08:34:49.314Z,424
2016-06-14T08:35:48.067Z,404
2016-06-14T08:36:49.586Z,348
2016-06-14T08:37:49.057Z,324
2016-06-14T08:38:49.154Z,320
2016-06-14T08:39:48.688Z,332
2016-06-14T08:40:50.410Z,280
2016-06-14T08:41:49.648Z,256
2016-06-14T08:42:49.355Z,240
2016-06-14T08:43:52.200Z,200
2016-06-14T08:44:53.407Z,172
2016-06-14T08:45:48.628Z,144
2016-06-14T08:46:49.554Z,124
2016-06-14T08:47:48.791Z,120
2016-06-14T08:48:49.201Z,120
2016-06-14T08:49:49.922Z,136
2016-06-14T08:50:49.630Z,148
2016-06-14T08:51:50.569Z,168
2016-06-14T08:52:50.025Z,180
2016-06-14T08:53:48.841Z,192
2016-06-14T08:54:50.423Z,208
2016-06-14T08:55:49.753Z,228
2016-06-14T08:56:49.148Z,252
2016-06-14T08:57:49.322Z,272
2016-06-14T08:58:51.543Z,292
2016-06-14T08:59:50.172Z,300
2016-06-14T09:00:49.503Z,344
2016-06-14T09:01:49.647Z,356
2016-06-14T09:02:48.884Z,500
2016-06-14T09:03:48.715Z,472
2016-06-14T09:04:49.625Z,420
2016-06-14T09:05:48.159Z,504
2016-06-14T09:06:49.115Z,644
2016-06-14T09:07:49.541Z,612
2016-06-14T09:08:49.106Z,336
2016-06-14T09:09:50.546Z,324
2016-06-14T09:10:49.221Z,320
2016-06-14T09:11:47.771Z,328
2016-06-14T09:12:49.306Z,340
2016-06-14T09:13:49.153Z,344
2016-06-14T09:14:48.140Z,324
2016-06-14T09:15:49.221Z,340
2016-06-14T09:16:49.521Z,320
2016-06-14T09:17:48.540Z,444
2016-06-14T09:18:49.777Z,336
2016-06-14T09:19:49.124Z,288
2016-06-14T09:20:48.534Z,280
2016-06-14T09:21:48.395Z,240
2016-06-14T09:22:48.353Z,224
2016-06-14T09:23:48.387Z,232
2016-06-14T09:24:48.859Z,232
2016-06-14T09:25:48.065Z,244
2016-06-14T09:26:48.068Z,260
2016-06-14T09:27:48.071Z,280
2016-06-14T09:28:48.074Z,384
2016-06-14T09:29:48.170Z,452
2016-06-14T09:30:48.095Z,472
2016-06-14T09:31:48.926Z,472
2016-06-14T09:32:48.117Z,456
2016-06-14T09:33:48.121Z,368
2016-06-14T09:34:48.123Z,348
2016-06-14T09:35:48.142Z,332
2016-06-14T09:36:48.646Z,308
2016-06-14T09:37:48.149Z,304
2016-06-14T09:38:48.152Z,284
2016-06-14T09:39:48.186Z,276
2016-06-14T09:40:48.172Z,280
2016-06-14T09:41:48.832Z,296
2016-06-14T09:42:48.945Z,288
2016-06-14T09:43:48.776Z,292
2016-06-14T09:44:48.874Z,296
2016-06-14T09:45:47.844Z,340
2016-06-14T09:46:49.270Z,380
2016-06-14T09:47:48.460Z,352
2016-06-14T09:48:49.244Z,356
2016-06-14T09:49:49.014Z,360
2016-06-14T09:50:48.766Z,392
2016-06-14T09:51:48.879Z,448
2016-06-14T09:52:48.834Z,488
2016-06-14T09:53:49.088Z,552
2016-06-14T09:54:49.232Z,512
2016-06-14T09:55:49.157Z,556
2016-06-14T09:56:49.410Z,476
2016-06-14T09:57:48.725Z,324
2016-06-14T09:58:48.775Z,440
2016-06-14T09:59:49.622Z,380
2016-06-14T10:00:50.062Z,416
2016-06-14T10:01:48.644Z,496
2016-06-14T10:02:49.741Z,548
2016-06-14T10:03:48.681Z,468
2016-06-14T10:09:45.715Z,356
2016-06-14T10:10:46.125Z,352
2016-06-14T10:11:46.424Z,356
2016-06-14T10:12:45.662Z,132
2016-06-14T10:13:46.337Z,388
2016-06-14T10:14:45.590Z,416
2016-06-14T10:15:45.624Z,408
2016-06-14T10:16:45.080Z,464
2016-06-14T10:17:46.490Z,592
2016-06-14T10:18:45.681Z,600
2016-06-14T10:19:45.902Z,632
2016-06-14T10:20:46.031Z,616
2016-06-14T10:21:50.174Z,604
2016-06-14T10:22:46.443Z,600
2016-06-14T10:23:47.305Z,592
2016-06-14T10:24:46.011Z,588
2016-06-14T10:25:46.655Z,520
2016-06-14T10:26:48.814Z,572
2016-06-14T10:27:47.553Z,536
2016-06-14T10:28:47.070Z,572
2016-06-14T10:29:47.417Z,600
2016-06-14T10:30:47.732Z,612
2016-06-14T10:31:46.720Z,532
2016-06-14T10:32:49.833Z,588
2016-06-14T10:33:48.008Z,592
2016-06-14T10:34:48.229Z,528
2016-06-14T10:35:47.811Z,548
2016-06-14T10:36:47.783Z,544
2016-06-14T10:37:47.442Z,464
2016-06-14T10:38:48.867Z,480
2016-06-14T10:39:48.465Z,524
2016-06-14T10:40:46.904Z,588
2016-06-14T10:41:47.985Z,636
2016-06-14T10:42:47.504Z,632
2016-06-14T10:43:48.008Z,656
2016-06-14T10:44:53.980Z,644
2016-06-14T10:45:47.075Z,576
2016-06-14T10:46:48.189Z,464
2016-06-14T10:47:48.409Z,456
2016-06-14T10:48:46.944Z,452
2016-06-14T10:49:47.088Z,440
2016-06-14T10:50:47.232Z,420
2016-06-14T10:51:47.704Z,408
2016-06-14T10:52:47.113Z,408
2016-06-14T10:53:48.883Z,404
2016-06-14T10:54:48.588Z,348
2016-06-14T10:55:47.481Z,316
2016-06-14T10:56:48.282Z,264
2016-06-14T10:57:47.940Z,228
2016-06-14T10:58:50.084Z,196
2016-06-14T10:59:47.603Z,164
2016-06-14T11:00:46.357Z,144
2016-06-14T11:01:45.969Z,132
2016-06-14T11:02:46.738Z,136
2016-06-14T11:03:46.913Z,164
2016-06-14T11:04:47.916Z,184
2016-06-14T11:05:46.715Z,204
2016-06-14T11:06:46.078Z,220
2016-06-14T11:07:46.971Z,232
2016-06-14T11:08:47.146Z,240
2016-06-14T11:09:46.102Z,260
2016-06-14T11:10:46.105Z,284
2016-06-14T11:11:46.249Z,304
2016-06-14T11:12:46.002Z,468
2016-06-14T11:13:46.005Z,408
2016-06-14T11:14:46.040Z,352
2016-06-14T11:15:46.231Z,364
2016-06-14T11:16:46.342Z,360
2016-06-14T11:17:46.206Z,376
2016-06-14T11:18:46.818Z,376
2016-06-14T11:19:47.696Z,368
2016-06-14T11:20:47.387Z,368
2016-06-14T11:21:46.796Z,364
2016-06-14T11:22:46.112Z,364
2016-06-14T11:23:46.162Z,364
2016-06-14T11:24:46.102Z,368
2016-06-14T11:25:46.106Z,380
2016-06-14T11:26:46.124Z,392
2016-06-14T11:27:46.111Z,404
2016-06-14T11:28:46.365Z,428
2016-06-14T11:29:45.961Z,576
2016-06-14T11:30:46.136Z,452
2016-06-14T11:31:47.092Z,472
2016-06-14T11:32:46.548Z,556
2016-06-14T11:33:46.161Z,416
2016-06-14T11:34:46.179Z,476
2016-06-14T11:35:46.901Z,392
2016-06-14T11:36:46.171Z,368
2016-06-14T11:37:46.174Z,344
2016-06-14T11:38:46.224Z,332
2016-06-14T11:39:46.195Z,352
2016-06-14T11:40:46.213Z,312
2016-06-14T11:41:46.217Z,312
2016-06-14T11:42:46.267Z,308
2016-06-14T11:43:46.317Z,312
2016-06-14T11:44:46.632Z,336
2016-06-14T11:45:47.979Z,348
2016-06-14T11:46:48.545Z,404
2016-06-14T11:47:47.829Z,380
2016-06-14T11:48:47.785Z,332
2016-06-14T11:49:48.508Z,304
2016-06-14T11:50:47.808Z,280
2016-06-14T11:51:47.998Z,272
2016-06-14T11:52:47.954Z,256
2016-06-14T11:53:47.644Z,244
2016-06-14T11:54:47.929Z,236
2016-06-14T11:55:47.791Z,228
2016-06-14T11:56:46.418Z,228
2016-06-14T11:57:46.641Z,216
2016-06-14T11:58:46.332Z,216
2016-06-14T11:59:46.710Z,216
2016-06-14T12:00:46.384Z,220
2016-06-14T12:01:46.434Z,224
2016-06-14T12:02:46.360Z,236
2016-06-14T12:03:46.926Z,248
2016-06-14T12:04:46.397Z,264
2016-06-14T12:05:46.384Z,288
2016-06-14T12:06:46.387Z,304
2016-06-14T12:07:46.422Z,332
2016-06-14T12:08:46.597Z,336
2016-06-14T12:09:46.428Z,344
2016-06-14T12:10:46.525Z,348
2016-06-14T12:11:46.153Z,352
2016-06-14T12:12:46.468Z,352
2016-06-14T12:13:46.315Z,360
2016-06-14T12:14:46.460Z,368
2016-06-14T12:15:46.462Z,388
2016-06-14T12:16:46.903Z,396
2016-06-14T12:17:46.968Z,408
2016-06-14T12:18:46.472Z,424
2016-06-14T12:19:46.489Z,432
2016-06-14T12:20:46.525Z,440
2016-06-14T12:21:46.496Z,476
2016-06-14T12:22:46.531Z,508
2016-06-14T12:23:46.517Z,444
2016-06-14T12:24:46.521Z,632
2016-06-14T12:25:46.525Z,624
2016-06-14T12:26:46.527Z,612
2016-06-14T12:27:46.546Z,616
2016-06-14T12:28:47.267Z,536
2016-06-14T12:29:46.567Z,388
2016-06-14T12:30:46.430Z,340
2016-06-14T12:31:46.870Z,304
2016-06-14T12:32:47.812Z,276
2016-06-14T12:33:46.580Z,252
2016-06-14T12:34:46.599Z,248
2016-06-14T12:35:47.039Z,228
2016-06-14T12:36:46.620Z,240
2016-06-14T12:37:46.609Z,248
2016-06-14T12:38:46.611Z,256
2016-06-14T12:39:46.629Z,272
2016-06-14T12:40:46.665Z,284
2016-06-14T12:41:46.635Z,336
2016-06-14T12:42:46.654Z,412
2016-06-14T12:43:46.705Z,344
2016-06-14T12:44:47.614Z,356
2016-06-14T12:45:46.820Z,392
2016-06-14T12:46:46.870Z,432
2016-06-14T12:47:46.529Z,372
2016-06-14T12:48:46.705Z,376
2016-06-14T12:49:46.707Z,372
2016-06-14T12:50:46.836Z,372
2016-06-14T12:51:46.995Z,376
2016-06-14T12:52:46.716Z,380
2016-06-14T12:53:46.719Z,380
2016-06-14T12:54:46.880Z,384
2016-06-14T12:55:46.820Z,392
2016-06-14T12:56:47.729Z,400
2016-06-14T12:57:47.717Z,420
2016-06-14T12:58:47.579Z,452
2016-06-14T12:59:47.316Z,412
2016-06-14T13:00:46.804Z,388
2016-06-14T13:01:46.776Z,372
2016-06-14T13:02:47.997Z,364
2016-06-14T13:03:47.125Z,352
2016-06-14T13:04:47.097Z,352
2016-06-14T13:05:48.038Z,360
2016-06-14T13:06:48.103Z,356
2016-06-14T13:07:47.935Z,372
2016-06-14T13:08:47.501Z,372
2016-06-14T13:09:47.926Z,384
2016-06-14T13:10:47.897Z,436
2016-06-14T13:11:47.900Z,416
2016-06-14T13:12:47.794Z,388
2016-06-14T13:13:47.844Z,384
2016-06-14T13:14:47.972Z,376
2016-06-14T13:15:48.287Z,376
2016-06-14T13:16:47.681Z,372
2016-06-14T13:17:48.451Z,360
2016-06-14T13:18:47.671Z,364
2016-06-14T13:19:47.785Z,364
2016-06-14T13:20:47.724Z,368
2016-06-14T13:21:46.931Z,376
2016-06-14T13:22:46.934Z,372
2016-06-14T13:23:46.781Z,384
2016-06-14T13:24:46.940Z,376
2016-06-14T13:25:46.959Z,412
2016-06-14T13:26:46.962Z,408
2016-06-14T13:27:47.013Z,504
2016-06-14T13:28:46.968Z,420
2016-06-14T13:29:47.158Z,428
2016-06-14T13:30:47.115Z,376
2016-06-14T13:31:48.040Z,360
2016-06-14T13:32:48.450Z,352
2016-06-14T13:33:47.014Z,336
2016-06-14T13:34:47.018Z,328
2016-06-14T13:35:47.021Z,340
2016-06-14T13:36:47.024Z,336
2016-06-14T13:37:47.043Z,320
2016-06-14T13:38:47.311Z,308
2016-06-14T13:39:46.580Z,300
2016-06-14T13:40:47.052Z,292
2016-06-14T13:41:47.789Z,272
2016-06-14T13:42:48.153Z,260
2016-06-14T13:43:48.186Z,260
2016-06-14T13:44:48.565Z,252
2016-06-14T13:45:47.302Z,236
2016-06-14T13:46:47.851Z,216
2016-06-14T13:47:47.168Z,208
2016-06-14T13:48:47.295Z,188
2016-06-14T13:49:47.314Z,184
2016-06-14T13:50:47.302Z,168
2016-06-14T13:51:48.117Z,168
2016-06-14T13:52:47.870Z,168
2016-06-14T13:53:48.326Z,164
2016-06-14T13:54:47.860Z,168
2016-06-14T13:55:49.660Z,176
2016-06-14T13:56:48.352Z,184
2016-06-14T13:57:47.713Z,192
2016-06-14T13:58:48.389Z,204
2016-06-14T13:59:48.250Z,212
2016-06-14T14:00:47.863Z,224
2016-06-14T14:01:47.648Z,228
2016-06-14T14:02:47.963Z,236
2016-06-14T14:03:47.654Z,252
2016-06-14T14:04:47.610Z,264
2016-06-14T14:05:47.488Z,276
2016-06-14T14:06:47.647Z,280
2016-06-14T14:07:47.213Z,292
2016-06-14T14:08:48.466Z,304